Time,TemperatureF,DewpointF,PressureIn,WindDirection,WindDirectionDegrees,WindSpeedMPH,WindSpeedGustMPH,Humidity,HourlyPrecipIn,Conditions,Clouds,dailyrainin,SoftwareType,DateUTC
2013-01-23 07:40:00,20.1,-8.6,30.19,SSW,207,2.0,5.0,27,0.00,CLR,,0.00,WeatherDisplay:10.37,2013-01-23 12:40:00,
2013-01-23 07:50:00,20.3,-8.4,30.19,SW,230,2.0,7.0,27,0.00,CLR,,0.00,WeatherDisplay:10.37,2013-01-23 12:50:00,
2013-01-23 07:59:00,20.3,-8.4,30.19,SW,228,3.0,8.0,27,0.00,CLR,,0.00,WeatherDisplay:10.37,2013-01-23 12:59:00,
2013-01-23 08:10:00,20.5,-8.3,30.19,SW,226,2.0,8.0,27,0.00,CLR,,0.00,WeatherDisplay:10.37,2013-01-23 13:10:00,
2013-01-23 08:20:00,20.7,-8.1,30.22,SW,224,2.0,7.0,27,0.00,CLR,,0.00,WeatherDisplay:10.37,2013-01-23 13:20:00,
2013-01-23 08:30:00,20.8,-8.0,30.22,SW,230,2.0,6.0,27,0.00,CLR,,0.00,WeatherDisplay:10.37,2013-01-23 13:30:00,
2013-01-23 08:40:00,21.0,-7.8,30.22,SSW,207,2.0,8.0,27,0.00,CLR,,0.00,WeatherDisplay:10.37,2013-01-23 13:40:00,
2013-01-23 08:50:00,21.2,-7.6,30.22,SW,218,5.0,6.0,27,0.00,CLR,,0.00,WeatherDisplay:10.37,2013-01-23 13:50:00,
2013-01-23 08:59:00,21.4,-7.5,30.22,SW,216,5.0,8.0,27,0.00,CLR,,0.00,WeatherDisplay:10.37,2013-01-23 13:59:00,
2013-01-23 09:10:00,21.7,-7.2,30.22,SSW,213,3.0,6.0,27,0.00,CLR,,0.00,WeatherDisplay:10.37,2013-01-23 14:10:00,
2013-01-23 09:20:00,21.9,-7.0,30.22,SW,214,5.0,7.0,27,0.00,CLR,,0.00,WeatherDisplay:10.37,2013-01-23 14:20:00,
2013-01-23 09:30:00,22.3,-6.7,30.22,SSW,209,5.0,7.0,27,0.00,CLR,,0.00,WeatherDisplay:10.37,2013-01-23 14:30:00,
2013-01-23 09:39:00,22.8,-6.3,30.22,SW,217,2.0,7.0,27,0.00,CLR,,0.00,WeatherDisplay:10.37,2013-01-23 14:39:00,
2013-01-23 09:49:00,23.2,-5.9,30.22,SSW,208,5.0,7.0,27,0.00,CLR,,0.00,WeatherDisplay:10.37,2013-01-23 14:49:00,
2013-01-23 09:59:00,23.5,-5.6,30.22,SSW,205,3.0,8.0,27,0.00,CLR,,0.00,WeatherDisplay:10.37,2013-01-23 14:59:00,
2013-01-23 10:09:00,23.5,-5.6,30.22,SSW,202,3.0,10.0,27,0.00,CLR,,0.00,WeatherDisplay:10.37,2013-01-23 15:09:00,
2013-01-23 10:20:00,24.1,-5.1,30.22,SSW,205,5.0,9.0,27,0.00,CLR,,0.00,WeatherDisplay:10.37,2013-01-23 15:20:00,
2013-01-23 10:30:00,24.4,-4.8,30.22,SSW,212,6.0,10.0,27,0.00,CLR,,0.00,WeatherDisplay:10.37,2013-01-23 15:30:00,
2013-01-23 10:40:00,25.0,-5.1,30.25,SW,215,5.0,9.0,26,0.00,CLR,,0.00,WeatherDisplay:10.37,2013-01-23 15:40:00,
2013-01-23 10:50:00,25.5,-4.7,30.25,SSW,200,8.0,12.0,26,0.00,CLR,,0.00,WeatherDisplay:10.37,2013-01-23 15:50:00,
2013-01-23 10:59:00,25.9,-4.4,30.25,SSW,204,7.0,10.0,26,0.00,CLR,,0.00,WeatherDisplay:10.37,2013-01-23 15:59:00,
2013-01-23 11:10:00,26.4,-3.9,30.22,SSW,198,7.0,13.0,26,0.00,CLR,,0.00,WeatherDisplay:10.37,2013-01-23 16:10:00,
2013-01-23 11:20:00,27.0,-1.9,30.22,SSW,192,6.0,13.0,28,0.00,CLR,,0.00,WeatherDisplay:10.37,2013-01-23 16:20:00,
2013-01-23 11:29:00,27.6,-1.3,30.22,SSW,200,6.0,12.0,28,0.00,CLR,,0.00,WeatherDisplay:10.37,2013-01-23 16:29:00,
2013-01-23 11:40:00,28.1,-0.9,30.22,SSW,206,3.0,15.0,28,0.00,CLR,,0.00,WeatherDisplay:10.37,2013-01-23 16:40:00,
2013-01-23 11:49:00,28.6,-0.5,30.22,SSW,204,6.0,10.0,28,0.00,CLR,,0.00,WeatherDisplay:10.37,2013-01-23 16:49:00,
2013-01-23 11:59:00,28.9,-0.1,30.22,South,189,7.0,18.0,28,0.00,CLR,,0.00,WeatherDisplay:10.37,2013-01-23 16:59:00,
2013-01-23 12:10:00,29.6,0.4,30.22,SSW,203,7.0,13.0,28,0.00,CLR,,0.00,WeatherDisplay:10.37,2013-01-23 17:10:00,
2013-01-23 12:20:00,30.4,1.1,30.19,SSW,206,6.0,14.0,28,0.00,CLR,,0.00,WeatherDisplay:10.37,2013-01-23 17:20:00,
2013-01-23 12:29:00,30.6,1.3,30.19,SSW,208,5.0,12.0,28,0.00,CLR,,0.00,WeatherDisplay:10.37,2013-01-23 17:29:00,
2013-01-23 12:40:00,30.7,2.9,30.22,SW,220,7.0,15.0,30,0.00,CLR,,0.00,WeatherDisplay:10.37,2013-01-23 17:40:00,
2013-01-23 12:50:00,31.8,3.9,30.19,SW,215,3.0,15.0,30,0.00,CLR,,0.00,WeatherDisplay:10.37,2013-01-23 17:50:00,
2013-01-23 13:00:00,32.4,4.3,30.19,SSW,199,7.0,14.0,30,0.00,CLR,,0.00,WeatherDisplay:10.37,2013-01-23 18:00:00,
2013-01-23 13:10:00,32.4,4.3,30.19,SSW,199,6.0,14.0,30,0.00,CLR,,0.00,WeatherDisplay:10.37,2013-01-23 18:10:00,
2013-01-23 13:20:00,32.9,4.8,30.22,SSW,195,7.0,13.0,30,0.00,CLR,,0.00,WeatherDisplay:10.37,2013-01-23 18:20:00,
2013-01-23 13:30:00,32.9,4.8,30.22,SSW,211,3.0,21.0,30,0.00,CLR,,0.00,WeatherDisplay:10.37,2013-01-23 18:30:00,
2013-01-23 13:40:00,33.1,5.0,30.22,SW,225,3.0,7.0,30,0.00,CLR,,0.00,WeatherDisplay:10.37,2013-01-23 18:40:00,
2013-01-23 13:49:00,34.0,5.7,30.22,SSW,202,5.0,12.0,30,0.00,CLR,,0.00,WeatherDisplay:10.37,2013-01-23 18:49:00,
2013-01-23 13:59:00,34.4,6.1,30.22,SSW,212,8.0,13.0,30,0.00,CLR,,0.00,WeatherDisplay:10.37,2013-01-23 18:59:00,
2013-01-23 14:09:00,35.5,6.3,30.22,SSW,201,7.0,13.0,29,0.00,CLR,,0.00,WeatherDisplay:10.37,2013-01-23 19:09:00,
2013-01-23 14:20:00,35.4,7.0,30.22,SSW,205,7.0,12.0,30,0.00,CLR,,0.00,WeatherDisplay:10.37,2013-01-23 19:20:00,
2013-01-23 14:30:00,35.6,6.4,30.22,SSW,211,8.0,13.0,29,0.00,CLR,,0.00,WeatherDisplay:10.37,2013-01-23 19:30:00,
2013-01-23 14:39:00,36.0,6.7,30.22,SSW,198,9.0,16.0,29,0.00,CLR,,0.00,WeatherDisplay:10.37,2013-01-23 19:39:00,
2013-01-23 14:50:00,36.1,6.9,30.19,SSW,196,8.0,13.0,29,0.00,CLR,,0.00,WeatherDisplay:10.37,2013-01-23 19:50:00,
2013-01-23 14:59:00,35.6,6.4,30.19,South,186,7.0,10.0,29,0.00,CLR,,0.00,WeatherDisplay:10.37,2013-01-23 19:59:00,
2013-01-23 15:09:00,35.1,6.7,30.16,SSW,194,8.0,14.0,30,0.00,CLR,,0.00,WeatherDisplay:10.37,2013-01-23 20:09:00,
2013-01-23 15:19:00,36.1,7.6,30.16,SSW,205,3.0,11.0,30,0.00,CLR,,0.00,WeatherDisplay:10.37,2013-01-23 20:19:00,
2013-01-23 15:29:00,35.4,7.0,30.16,SSW,202,9.0,17.0,30,0.00,CLR,,0.00,WeatherDisplay:10.37,2013-01-23 20:29:00,
2013-01-23 15:39:00,35.9,7.4,30.16,SSW,201,6.0,14.0,30,0.00,CLR,,0.00,WeatherDisplay:10.37,2013-01-23 20:39:00,
2013-01-23 15:49:00,36.3,7.8,30.16,SW,219,5.0,13.0,30,0.00,CLR,,0.00,WeatherDisplay:10.37,2013-01-23 20:49:00,
2013-01-23 15:59:00,36.5,8.0,30.16,SSW,206,3.0,12.0,30,0.00,CLR,,0.00,WeatherDisplay:10.37,2013-01-23 20:59:00,
2013-01-23 16:10:00,36.5,8.0,30.19,SSW,213,6.0,11.0,30,0.00,CLR,,0.00,WeatherDisplay:10.37,2013-01-23 21:10:00,
2013-01-23 16:20:00,36.3,7.8,30.16,SSW,203,7.0,12.0,30,0.00,CLR,,0.00,WeatherDisplay:10.37,2013-01-23 21:20:00,
2013-01-23 16:29:00,36.1,7.6,30.16,SSW,206,6.0,10.0,30,0.00,CLR,,0.00,WeatherDisplay:10.37,2013-01-23 21:29:00,
2013-01-23 16:39:00,35.8,7.4,30.13,SSW,207,6.0,10.0,30,0.00,CLR,,0.00,WeatherDisplay:10.37,2013-01-23 21:39:00,
2013-01-23 16:49:00,35.8,7.3,30.13,SSW,203,6.0,9.0,30,0.00,CLR,,0.00,WeatherDisplay:10.37,2013-01-23 21:49:00,
2013-01-23 16:59:00,35.6,7.9,30.13,SW,217,2.0,6.0,31,0.00,CLR,,0.00,WeatherDisplay:10.37,2013-01-23 21:59:00,
2013-01-23 17:09:00,35.4,7.7,30.13,SSW,199,3.0,8.0,31,0.00,CLR,,0.00,WeatherDisplay:10.37,2013-01-23 22:09:00,
2013-01-23 17:19:00,34.9,7.3,30.10,SSW,200,3.0,6.0,31,0.00,CLR,,0.00,WeatherDisplay:10.37,2013-01-23 22:19:00,
2013-01-23 17:29:00,34.3,7.5,30.10,SSW,201,3.0,8.0,32,0.00,CLR,,0.00,WeatherDisplay:10.37,2013-01-23 22:29:00,
2013-01-23 17:39:00,33.7,7.0,30.10,SSW,202,5.0,9.0,32,0.00,CLR,,0.00,WeatherDisplay:10.37,2013-01-23 22:39:00,
2013-01-23 17:49:00,33.2,7.1,30.07,SSW,200,3.0,10.0,33,0.00,CLR,,0.00,WeatherDisplay:10.37,2013-01-23 22:49:00,
2013-01-23 17:59:00,32.6,7.3,30.07,SSW,203,2.0,5.0,34,0.00,CLR,,0.00,WeatherDisplay:10.37,2013-01-23 22:59:00,
2013-01-23 18:09:00,32.1,6.9,30.07,SSW,207,1.0,4.0,34,0.00,CLR,,0.00,WeatherDisplay:10.37,2013-01-23 23:09:00,
2013-01-23 18:19:00,31.5,6.3,30.04,SW,225,1.0,3.0,34,0.00,CLR,,0.00,WeatherDisplay:10.37,2013-01-23 23:19:00,
2013-01-23 18:29:00,31.3,6.8,30.04,SSW,205,1.0,3.0,35,0.00,CLR,,0.00,WeatherDisplay:10.37,2013-01-23 23:29:00,
2013-01-23 18:40:00,31.1,7.2,30.04,SSW,195,2.0,4.0,36,0.00,CLR,,0.00,WeatherDisplay:10.37,2013-01-23 23:40:00,
2013-01-23 18:49:00,31.1,7.8,30.04,SSW,201,3.0,5.0,37,0.00,CLR,,0.00,WeatherDisplay:10.37,2013-01-23 23:49:00,
2013-01-23 18:59:00,30.7,8.1,30.04,SSW,196,3.0,5.0,38,0.00,CLR,,0.00,WeatherDisplay:10.37,2013-01-23 23:59:00,
2013-01-23 19:10:00,30.6,7.9,30.04,SSW,201,2.0,4.0,38,0.00,CLR,,0.00,WeatherDisplay:10.37,2013-01-24 00:10:00,
2013-01-23 19:20:00,30.4,7.8,30.04,SSW,195,3.0,5.0,38,0.00,CLR,,0.00,WeatherDisplay:10.37,2013-01-24 00:20:00,
2013-01-23 19:30:00,30.2,7.6,30.04,SSW,199,2.0,3.0,38,0.00,CLR,,0.00,WeatherDisplay:10.37,2013-01-24 00:30:00,
2013-01-23 19:39:00,29.8,7.9,30.04,SSW,200,2.0,4.0,39,0.00,CLR,,0.00,WeatherDisplay:10.37,2013-01-24 00:39:00,
2013-01-23 19:50:00,29.5,8.6,30.04,SSW,202,3.0,5.0,41,0.00,CLR,,0.00,WeatherDisplay:10.37,2013-01-24 00:50:00,
2013-01-23 19:59:00,29.3,8.5,30.04,SSW,204,2.0,3.0,41,0.00,CLR,,0.00,WeatherDisplay:10.37,2013-01-24 00:59:00,
2013-01-23 20:10:00,28.9,8.1,30.01,SSW,201,2.0,4.0,41,0.00,CLR,,0.00,WeatherDisplay:10.37,2013-01-24 01:10:00,
2013-01-23 20:20:00,28.8,8.0,30.04,SSW,202,2.0,3.0,41,0.00,CLR,,0.00,WeatherDisplay:10.37,2013-01-24 01:20:00,
2013-01-23 20:29:00,29.1,8.3,30.04,SSW,200,2.0,4.0,41,0.00,CLR,,0.00,WeatherDisplay:10.37,2013-01-24 01:29:00,
2013-01-23 20:39:00,29.1,8.3,30.04,SSW,199,1.0,3.0,41,0.00,CLR,,0.00,WeatherDisplay:10.37,2013-01-24 01:39:00,
2013-01-23 20:49:00,29.1,8.3,30.04,SSW,207,2.0,5.0,41,0.00,CLR,,0.00,WeatherDisplay:10.37,2013-01-24 01:49:00,
2013-01-23 21:00:00,28.8,8.5,30.04,SSW,201,3.0,5.0,42,0.00,CLR,,0.00,WeatherDisplay:10.37,2013-01-24 02:00:00,
2013-01-23 21:10:00,28.9,8.7,30.01,SSW,197,3.0,5.0,42,0.00,CLR,,0.00,WeatherDisplay:10.37,2013-01-24 02:10:00,
2013-01-23 21:20:00,29.1,8.8,30.04,SSW,197,2.0,5.0,42,0.00,CLR,,0.00,WeatherDisplay:10.37,2013-01-24 02:20:00,
2013-01-23 21:29:00,29.3,9.0,30.04,SSW,197,3.0,5.0,42,0.00,CLR,,0.00,WeatherDisplay:10.37,2013-01-24 02:29:00,
2013-01-23 21:39:00,29.5,9.2,30.04,SSW,199,2.0,4.0,42,0.00,CLR,,0.00,WeatherDisplay:10.37,2013-01-24 02:39:00,
2013-01-23 21:49:00,28.9,8.7,30.01,SSW,202,2.0,3.0,42,0.00,CLR,,0.00,WeatherDisplay:10.37,2013-01-24 02:49:00,
2013-01-23 21:59:00,28.9,8.7,30.01,SSW,198,2.0,5.0,42,0.00,CLR,,0.00,WeatherDisplay:10.37,2013-01-24 02:59:00,
2013-01-23 22:10:00,28.2,8.0,30.01,SSW,202,1.0,3.0,42,0.00,CLR,,0.00,WeatherDisplay:10.37,2013-01-24 03:10:00,
2013-01-23 22:19:00,27.5,7.9,30.01,SSW,195,1.0,3.0,43,0.00,CLR,,0.00,WeatherDisplay:10.37,2013-01-24 03:19:00,
2013-01-23 22:29:00,27.0,7.5,30.01,SSW,202,0.0,2.0,43,0.00,CLR,,0.00,WeatherDisplay:10.37,2013-01-24 03:29:00,
2013-01-23 22:39:00,26.8,7.8,30.01,SSW,202,1.0,2.0,44,0.00,CLR,,0.00,WeatherDisplay:10.37,2013-01-24 03:39:00,
2013-01-23 22:49:00,27.0,8.0,30.01,South,187,2.0,4.0,44,0.00,CLR,,0.00,WeatherDisplay:10.37,2013-01-24 03:49:00,
2013-01-23 22:59:00,27.5,8.9,30.01,SSW,202,0.0,2.0,45,0.00,CLR,,0.00,WeatherDisplay:10.37,2013-01-24 03:59:00,
2013-01-23 23:09:00,27.9,9.7,30.01,SSW,201,2.0,3.0,46,0.00,CLR,,0.00,WeatherDisplay:10.37,2013-01-24 04:09:00,
2013-01-23 23:19:00,28.4,10.2,30.01,SSW,204,2.0,3.0,46,0.00,CLR,,0.00,WeatherDisplay:10.37,2013-01-24 04:19:00,
2013-01-23 23:29:00,29.1,11.4,30.01,South,190,2.0,5.0,47,0.00,CLR,,0.00,WeatherDisplay:10.37,2013-01-24 04:29:00,
2013-01-23 23:39:00,29.5,11.2,30.01,SSW,199,2.0,5.0,46,0.00,CLR,,0.00,WeatherDisplay:10.37,2013-01-24 04:39:00,
2013-01-23 23:49:00,30.0,11.7,30.01,SSW,192,3.0,5.0,46,0.00,CLR,,0.00,WeatherDisplay:10.37,2013-01-24 04:49:00,
2013-01-23 23:59:00,30.7,11.9,30.01,SSW,195,3.0,6.0,45,0.00,CLR,,0.00,WeatherDisplay:10.37,2013-01-24 04:59:00,